createdAt,value
2019-02-06T00:02:09.649Z,7.22
2019-02-06T00:05:13.684Z,7.60
2019-02-06T00:07:55.254Z,6.78
2019-02-06T00:10:48.042Z,4.25
2019-02-06T00:13:41.351Z,5.75
2019-02-06T00:16:34.938Z,7.20
2019-02-06T00:19:27.977Z,4.58
2019-02-06T00:22:21.803Z,4.47
2019-02-06T00:25:11.015Z,4.85
2019-02-06T00:28:03.816Z,8.48
2019-02-06T00:30:56.615Z,5.03
2019-02-06T00:33:49.927Z,3.77
2019-02-06T00:36:42.984Z,8.13
2019-02-06T00:39:36.043Z,5.90
2019-02-06T00:42:26.054Z,4.20
2019-02-06T00:45:18.842Z,5.28
2019-02-06T00:48:11.626Z,6.62
2019-02-06T00:51:04.711Z,5.25
2019-02-06T00:53:57.733Z,3.65
2019-02-06T00:56:51.048Z,6.95
2019-02-06T00:59:40.263Z,5.62
2019-02-06T01:02:33.582Z,6.25
2019-02-06T01:05:23.302Z,4.55
2019-02-06T01:08:17.128Z,8.95
2019-02-06T01:11:09.929Z,5.87
2019-02-06T01:14:05.801Z,4.20
2019-02-06T01:17:00.134Z,7.25
2019-02-06T01:19:53.190Z,5.00
2019-02-06T01:22:46.247Z,5.20
2019-02-06T01:25:31.626Z,5.50
2019-02-06T01:28:24.423Z,4.78
2019-02-06T01:31:20.041Z,5.37
2019-02-06T01:34:13.096Z,6.22
2019-02-06T01:37:02.309Z,6.58
2019-02-06T01:39:55.624Z,5.47
2019-02-06T01:42:48.937Z,4.55
2019-02-06T01:45:41.990Z,2.67
2019-02-06T01:48:35.314Z,3.67
2019-02-06T01:51:28.105Z,5.00
2019-02-06T01:54:20.908Z,4.40
2019-02-06T01:57:14.787Z,6.45
2019-02-06T02:00:07.790Z,5.50
2019-02-06T02:02:55.148Z,2.42
2019-02-06T02:06:01.411Z,9.83
2019-02-06T02:08:39.276Z,5.17
2019-02-06T02:11:32.074Z,4.00
2019-02-06T02:14:25.386Z,6.75
2019-02-06T02:17:18.183Z,6.05
2019-02-06T02:20:18.408Z,3.42
2019-02-06T02:23:11.728Z,5.08
2019-02-06T02:26:04.775Z,3.60
2019-02-06T02:28:58.608Z,4.70
2019-02-06T02:31:51.911Z,3.98
2019-02-06T02:34:44.711Z,2.33
2019-02-06T02:37:37.513Z,4.42
2019-02-06T02:40:30.825Z,6.90
2019-02-06T02:43:23.877Z,3.37
2019-02-06T02:46:16.683Z,4.28
2019-02-06T02:49:09.486Z,3.87
2019-02-06T02:52:02.279Z,5.00
2019-02-06T02:54:55.081Z,2.75
2019-02-06T02:57:49.161Z,7.97
2019-02-06T03:01:06.792Z,3.20
2019-02-06T03:04:25.710Z,3.47
2019-02-06T03:07:18.502Z,2.85
2019-02-06T03:10:11.302Z,3.45
2019-02-06T03:13:05.894Z,3.90
2019-02-06T03:15:55.429Z,4.72
2019-02-06T03:18:48.166Z,6.97
2019-02-06T03:21:40.968Z,4.37
2019-02-06T03:24:33.767Z,5.15
2019-02-06T03:27:27.080Z,4.90
2019-02-06T03:30:20.018Z,6.58
2019-02-06T03:33:13.230Z,4.83
2019-02-06T03:36:06.248Z,3.95
2019-02-06T03:38:59.048Z,5.05
2019-02-06T03:41:54.153Z,4.47
2019-02-06T03:44:46.948Z,7.50
2019-02-06T03:47:40.781Z,6.00
2019-02-06T03:50:35.367Z,4.62
2019-02-06T03:53:29.960Z,7.67
2019-02-06T03:56:23.024Z,5.05
2019-02-06T03:59:16.074Z,8.03
2019-02-06T04:02:08.881Z,4.17
2019-02-06T04:05:02.189Z,6.33
2019-02-06T04:07:56.016Z,6.58
2019-02-06T04:10:44.974Z,5.67
2019-02-06T04:13:38.023Z,3.67
2019-02-06T04:16:27.497Z,5.75
2019-02-06T04:19:20.299Z,5.25
2019-02-06T04:22:13.351Z,5.85
2019-02-06T04:25:06.167Z,6.10
2019-02-06T04:27:58.961Z,7.20
2019-02-06T04:30:52.011Z,5.95
2019-02-06T04:33:44.808Z,7.75
2019-02-06T04:36:37.863Z,5.47
2019-02-06T04:39:30.922Z,5.10
2019-02-06T04:42:23.726Z,4.80
2019-02-06T04:45:16.787Z,5.87
2019-02-06T04:48:09.578Z,9.18
2019-02-06T04:50:58.896Z,10.00
2019-02-06T04:53:51.848Z,11.28
2019-02-06T04:56:45.160Z,9.75
2019-02-06T04:59:38.982Z,3.42
2019-02-06T05:02:31.782Z,8.40
2019-02-06T05:05:25.611Z,9.73
2019-02-06T05:08:18.415Z,8.53
2019-02-06T05:11:11.464Z,6.65
2019-02-06T05:14:04.269Z,9.18
2019-02-06T05:16:57.071Z,6.85
2019-02-06T05:19:51.143Z,12.55
2019-02-06T05:22:43.949Z,3.87
2019-02-06T05:25:36.491Z,7.78
2019-02-06T05:28:29.543Z,5.17
2019-02-06T05:31:22.605Z,4.72
2019-02-06T05:34:16.679Z,8.93
2019-02-06T05:37:09.482Z,6.22
2019-02-06T05:39:58.644Z,10.35
2019-02-06T05:42:52.769Z,11.38
2019-02-06T05:45:44.557Z,7.50
2019-02-06T05:48:37.351Z,14.25
2019-02-06T05:51:30.663Z,7.90
2019-02-06T05:54:23.720Z,9.50
2019-02-06T05:57:16.522Z,7.15
2019-02-06T06:00:09.323Z,8.30
2019-02-06T06:03:02.124Z,12.98
2019-02-06T06:05:55.945Z,11.12
2019-02-06T06:08:49.003Z,7.75
2019-02-06T06:11:41.804Z,10.08
2019-02-06T06:14:34.858Z,8.73
2019-02-06T06:17:27.655Z,12.85
2019-02-06T06:20:16.622Z,6.65
2019-02-06T06:23:09.673Z,15.75
2019-02-06T06:26:03.054Z,7.17
2019-02-06T06:28:55.786Z,10.03
2019-02-06T06:31:48.843Z,17.20
2019-02-06T06:34:39.080Z,8.45
2019-02-06T06:37:31.882Z,14.83
2019-02-06T06:40:24.701Z,11.48
2019-02-06T06:43:17.742Z,9.68
2019-02-06T06:46:10.539Z,6.92
2019-02-06T06:49:03.339Z,14.23
2019-02-06T06:51:56.390Z,8.65
2019-02-06T06:54:49.753Z,11.20
2019-02-06T06:57:42.765Z,9.75
2019-02-06T07:00:37.354Z,8.85
2019-02-06T07:03:30.152Z,8.80
2019-02-06T07:06:19.375Z,11.35
2019-02-06T07:09:12.425Z,12.30
2019-02-06T07:12:05.743Z,12.05
2019-02-06T07:14:59.048Z,8.28
2019-02-06T07:17:52.362Z,10.23
2019-02-06T07:20:41.577Z,7.28
2019-02-06T07:23:34.375Z,5.75
2019-02-06T07:26:27.175Z,8.40
2019-02-06T07:29:20.746Z,12.45
2019-02-06T07:32:13.544Z,7.30
2019-02-06T07:35:02.762Z,7.85
2019-02-06T07:37:55.561Z,14.43
2019-02-06T07:40:48.875Z,11.83
2019-02-06T07:43:41.930Z,10.38
2019-02-06T07:46:34.985Z,13.90
2019-02-06T07:49:28.042Z,12.05
2019-02-06T07:52:21.359Z,14.87
2019-02-06T07:55:14.407Z,8.03
2019-02-06T07:58:03.893Z,9.98
2019-02-06T08:00:56.679Z,11.15
2019-02-06T08:03:49.993Z,12.07
2019-02-06T08:06:42.791Z,14.63
2019-02-06T08:09:36.361Z,12.88
2019-02-06T08:12:29.930Z,17.77
2019-02-06T08:15:18.889Z,12.93
2019-02-06T08:18:12.715Z,16.50
2019-02-06T08:21:05.512Z,14.65
2019-02-06T08:23:58.571Z,11.60
2019-02-06T08:26:51.628Z,14.40
2019-02-06T08:29:44.948Z,15.23
2019-02-06T08:32:39.016Z,10.72
2019-02-06T08:35:31.901Z,12.23
2019-02-06T08:38:24.909Z,10.72
2019-02-06T08:41:17.674Z,13.40
2019-02-06T08:44:06.638Z,11.68
2019-02-06T08:46:59.692Z,14.65
2019-02-06T08:49:54.540Z,17.92
2019-02-06T08:52:59.122Z,12.07
2019-02-06T08:55:52.681Z,10.45
2019-02-06T08:58:45.997Z,12.58
2019-02-06T09:01:39.307Z,13.10
2019-02-06T09:04:33.383Z,13.45
2019-02-06T09:07:26.184Z,21.50
2019-02-06T09:10:19.752Z,14.63
2019-02-06T09:13:13.831Z,24.27
2019-02-06T09:16:06.886Z,8.75
2019-02-06T09:18:59.943Z,11.65
2019-02-06T09:21:53.261Z,15.43
2019-02-06T09:24:47.083Z,13.20
2019-02-06T09:27:39.880Z,17.87
2019-02-06T09:30:33.962Z,16.82
2019-02-06T09:33:27.015Z,16.90
2019-02-06T09:36:16.240Z,11.78
2019-02-06T09:39:11.730Z,14.87
2019-02-06T09:42:02.599Z,12.68
2019-02-06T09:44:49.900Z,13.72
2019-02-06T09:47:42.567Z,14.43
2019-02-06T09:50:29.506Z,11.78
2019-02-06T09:53:23.304Z,14.05
2019-02-06T09:56:17.134Z,13.18
2019-02-06T09:59:10.950Z,16.27
2019-02-06T10:02:05.292Z,13.58
2019-02-06T10:04:58.094Z,20.23
2019-02-06T10:07:51.146Z,8.03
2019-02-06T10:10:44.755Z,14.50
2019-02-06T10:13:37.512Z,10.15
2019-02-06T10:16:29.546Z,13.20
2019-02-06T10:19:18.762Z,11.08
2019-02-06T10:22:11.817Z,9.25
2019-02-06T10:25:04.616Z,9.08
2019-02-06T10:27:57.701Z,11.97
2019-02-06T10:30:54.320Z,14.03
2019-02-06T10:33:43.537Z,11.68
2019-02-06T10:36:39.653Z,9.68
2019-02-06T10:39:34.610Z,7.17
2019-02-06T10:42:25.254Z,11.53
2019-02-06T10:45:20.915Z,9.63
2019-02-06T10:48:10.855Z,10.78
2019-02-06T10:51:15.176Z,12.43
2019-02-06T10:54:07.977Z,10.53
2019-02-06T10:57:00.776Z,9.08
2019-02-06T10:59:50.760Z,10.10
2019-02-06T11:02:43.817Z,11.78
2019-02-06T11:05:36.646Z,10.53
2019-02-06T11:08:29.676Z,13.08
2019-02-06T11:11:19.056Z,11.10
2019-02-06T11:14:11.942Z,8.78
2019-02-06T11:17:06.286Z,10.00
2019-02-06T11:19:59.079Z,9.90
2019-02-06T11:22:52.134Z,8.98
2019-02-06T11:25:45.192Z,12.78
2019-02-06T11:28:38.248Z,10.13
2019-02-06T11:31:32.328Z,10.08
2019-02-06T11:34:25.129Z,6.53
2019-02-06T11:37:17.927Z,11.83
2019-02-06T11:40:10.992Z,9.85
2019-02-06T11:43:04.044Z,6.22
2019-02-06T11:45:57.377Z,10.45
2019-02-06T11:48:50.409Z,12.33
2019-02-06T11:51:39.626Z,13.58
2019-02-06T11:54:32.517Z,9.20
2019-02-06T11:57:25.477Z,9.70
2019-02-06T12:00:18.537Z,10.35
2019-02-06T12:03:11.849Z,10.82
2019-02-06T12:06:05.928Z,7.97
2019-02-06T12:08:58.986Z,5.58
2019-02-06T12:11:52.041Z,11.38
2019-02-06T12:14:44.840Z,9.18
2019-02-06T12:17:37.639Z,9.00
2019-02-06T12:21:20.105Z,10.08
2019-02-06T12:24:15.975Z,12.68
2019-02-06T12:27:05.193Z,14.73
2019-02-06T12:29:58.250Z,9.13
2019-02-06T12:32:52.596Z,9.83
2019-02-06T12:35:44.364Z,10.08
2019-02-06T12:38:33.603Z,7.65
2019-02-06T12:41:26.633Z,11.55
2019-02-06T12:44:19.687Z,9.88
2019-02-06T12:47:09.671Z,12.23
2019-02-06T12:49:59.179Z,12.35
2019-02-06T12:52:52.455Z,9.55
2019-02-06T12:55:42.955Z,9.30
2019-02-06T12:58:37.800Z,17.40
2019-02-06T13:01:30.858Z,10.98
2019-02-06T13:04:20.078Z,9.90
2019-02-06T13:07:12.876Z,11.48
2019-02-06T13:10:06.191Z,9.03
2019-02-06T13:12:59.498Z,12.75
2019-02-06T13:15:52.809Z,14.95
2019-02-06T13:18:47.143Z,11.03
2019-02-06T13:21:40.970Z,11.57
2019-02-06T13:24:34.025Z,13.50
2019-02-06T13:27:26.828Z,14.50
2019-02-06T13:30:19.622Z,17.45
2019-02-06T13:33:25.224Z,12.58
2019-02-06T13:36:18.284Z,13.68
2019-02-06T13:39:11.080Z,10.48
2019-02-06T13:42:05.498Z,17.80
2019-02-06T13:44:58.247Z,13.40
2019-02-06T13:47:51.281Z,12.75
2019-02-06T13:50:38.639Z,12.20
2019-02-06T13:53:31.500Z,13.25
2019-02-06T13:56:24.556Z,14.15
2019-02-06T13:59:17.618Z,13.83
2019-02-06T14:02:10.665Z,14.53
2019-02-06T14:04:59.883Z,11.95
2019-02-06T14:07:52.937Z,17.48
2019-02-06T14:10:58.068Z,12.88
2019-02-06T14:13:39.050Z,15.53
2019-02-06T14:16:32.875Z,11.25
2019-02-06T14:19:26.184Z,11.48
2019-02-06T14:22:19.242Z,11.20
2019-02-06T14:25:17.422Z,10.38
2019-02-06T14:28:44.558Z,6.62
2019-02-06T14:31:53.454Z,16.85
2019-02-06T14:34:58.026Z,11.18
2019-02-06T14:38:11.303Z,12.68
2019-02-06T14:41:15.627Z,9.78
2019-02-06T14:44:28.903Z,10.35
2019-02-06T14:47:33.225Z,11.75
2019-02-06T14:50:37.798Z,6.72
2019-02-06T14:53:44.940Z,11.70
2019-02-06T14:57:01.299Z,9.43
2019-02-06T14:59:57.929Z,20.55
2019-02-06T15:02:55.399Z,12.75
2019-02-06T15:05:58.889Z,17.25
2019-02-06T15:09:03.465Z,17.57
2019-02-06T15:12:19.819Z,14.68
2019-02-06T15:15:19.296Z,14.83
2019-02-06T15:18:23.849Z,12.90
2019-02-06T15:21:29.446Z,9.03
2019-02-06T15:24:39.144Z,10.88
2019-02-06T15:27:49.095Z,11.33
2019-02-06T15:31:06.480Z,13.98
2019-02-06T15:34:15.524Z,16.07
2019-02-06T15:37:26.631Z,9.53
2019-02-06T15:40:30.950Z,11.10
2019-02-06T15:43:25.802Z,11.68
2019-02-06T15:46:30.379Z,13.48
2019-02-06T15:49:40.841Z,10.35
2019-02-06T15:52:54.133Z,10.32
2019-02-06T15:55:58.442Z,8.93
2019-02-06T15:59:11.721Z,12.15
2019-02-06T16:02:31.142Z,8.53
2019-02-06T16:05:55.176Z,13.15
2019-02-06T16:09:11.294Z,8.40
2019-02-06T16:12:20.655Z,8.50
2019-02-06T16:15:36.812Z,11.40
2019-02-06T16:18:56.235Z,11.10
2019-02-06T16:22:15.400Z,7.17
2019-02-06T16:25:20.233Z,9.45
2019-02-06T16:28:24.048Z,7.33
2019-02-06T16:31:31.180Z,6.22
2019-02-06T16:34:48.041Z,8.13
2019-02-06T16:37:52.616Z,8.85
2019-02-06T16:41:04.872Z,7.60
2019-02-06T16:44:06.631Z,13.10
2019-02-06T16:47:05.325Z,8.18
2019-02-06T16:50:15.785Z,14.25
2019-02-06T16:53:29.831Z,9.20
2019-02-06T16:56:48.999Z,6.37
2019-02-06T16:59:53.319Z,4.70
2019-02-06T17:02:57.647Z,9.95
2019-02-06T17:06:07.851Z,11.18
2019-02-06T17:09:15.243Z,12.18
2019-02-06T17:12:21.799Z,9.95
2019-02-06T17:15:33.352Z,9.70
2019-02-06T17:18:37.675Z,10.35
2019-02-06T17:21:47.880Z,8.55
2019-02-06T17:24:52.457Z,7.00
2019-02-06T17:28:09.067Z,12.73
2019-02-06T17:31:31.313Z,14.60
2019-02-06T17:34:38.186Z,8.93
2019-02-06T17:37:41.225Z,8.63
2019-02-06T17:40:55.273Z,9.78
2019-02-06T17:43:56.076Z,9.90
2019-02-06T17:47:06.219Z,8.63
2019-02-06T17:50:09.777Z,12.55
2019-02-06T17:53:21.516Z,10.13
2019-02-06T17:56:10.756Z,11.85
2019-02-06T17:59:05.576Z,16.12
2019-02-06T18:02:02.503Z,12.85
2019-02-06T18:04:57.322Z,15.40
2019-02-06T18:07:50.121Z,12.45
2019-02-06T18:10:43.433Z,14.05
2019-02-06T18:13:36.491Z,11.57
2019-02-06T18:16:29.544Z,10.40
2019-02-06T18:19:23.112Z,9.30
2019-02-06T18:22:16.170Z,8.23
2019-02-06T18:25:09.224Z,12.23
2019-02-06T18:28:02.279Z,5.55
2019-02-06T18:30:55.086Z,9.15
2019-02-06T18:33:48.136Z,11.75
2019-02-06T18:36:41.450Z,11.43
2019-02-06T18:39:35.019Z,11.55
2019-02-06T18:42:37.006Z,7.83
2019-02-06T18:45:22.407Z,11.80
2019-02-06T18:48:11.879Z,14.68
2019-02-06T18:51:04.935Z,9.43
2019-02-06T18:53:58.251Z,13.90
2019-02-06T18:56:51.054Z,10.72
2019-02-06T18:59:43.862Z,7.47
2019-02-06T19:02:37.162Z,9.28
2019-02-06T19:05:27.172Z,5.25
2019-02-06T19:08:16.563Z,7.30
2019-02-06T19:11:09.416Z,7.72
2019-02-06T19:14:02.218Z,8.23
2019-02-06T19:16:55.527Z,6.90
2019-02-06T19:19:49.606Z,8.30
2019-02-06T19:22:42.408Z,5.70
2019-02-06T19:25:35.470Z,5.62
2019-02-06T19:28:29.546Z,7.40
2019-02-06T19:31:23.626Z,6.53
2019-02-06T19:34:16.682Z,8.83
2019-02-06T19:37:10.761Z,4.65
2019-02-06T19:40:03.815Z,6.67
2019-02-06T19:43:00.481Z,11.03
2019-02-06T19:45:49.416Z,4.72
2019-02-06T19:48:42.990Z,8.13
2019-02-06T19:51:32.203Z,6.30
2019-02-06T19:54:25.000Z,4.65
2019-02-06T19:57:19.090Z,4.70
2019-02-06T20:00:12.142Z,9.38
2019-02-06T20:03:08.043Z,8.08
2019-02-06T20:05:58.254Z,6.83
2019-02-06T20:08:51.058Z,6.62
2019-02-06T20:11:44.109Z,5.95
2019-02-06T20:14:37.419Z,4.03
2019-02-06T20:17:24.843Z,4.80
2019-02-06T20:20:10.473Z,6.33
2019-02-06T20:23:03.377Z,10.75
2019-02-06T20:25:56.590Z,4.33
2019-02-06T20:28:49.387Z,4.95
2019-02-06T20:31:42.182Z,4.17
2019-02-06T20:34:36.267Z,5.80
2019-02-06T20:37:29.319Z,6.25
2019-02-06T20:40:22.376Z,4.00
2019-02-06T20:43:21.773Z,5.55
2019-02-06T20:46:06.714Z,4.45
2019-02-06T20:49:01.034Z,4.70
2019-02-06T20:51:48.841Z,3.35
2019-02-06T20:54:42.024Z,6.37
2019-02-06T20:57:34.834Z,8.68
2019-02-06T21:00:29.160Z,7.62
2019-02-06T21:03:21.966Z,8.33
2019-02-06T21:06:11.176Z,5.35
2019-02-06T21:09:00.551Z,6.28
2019-02-06T21:11:53.449Z,4.20
2019-02-06T21:14:46.502Z,4.60
2019-02-06T21:17:40.327Z,4.83
2019-02-06T21:20:34.668Z,9.05
2019-02-06T21:23:23.883Z,5.30
2019-02-06T21:26:16.935Z,5.58
2019-02-06T21:29:09.992Z,4.72
2019-02-06T21:32:03.053Z,6.03
2019-02-06T21:34:56.873Z,4.47
2019-02-06T21:37:49.933Z,3.50
2019-02-06T21:40:44.008Z,6.00
2019-02-06T21:43:44.139Z,7.28
2019-02-06T21:46:31.399Z,5.05
2019-02-06T21:49:24.454Z,6.62
2019-02-06T21:52:18.023Z,8.45
2019-02-06T21:55:10.823Z,5.72
2019-02-06T21:58:04.904Z,7.03
2019-02-06T22:00:55.155Z,4.33
2019-02-06T22:03:47.945Z,5.37
2019-02-06T22:06:40.744Z,8.38
2019-02-06T22:09:34.319Z,4.58
2019-02-06T22:12:28.415Z,6.17
2019-02-06T22:15:21.723Z,4.37
2019-02-06T22:18:14.760Z,6.78
2019-02-06T22:21:04.200Z,7.58
2019-02-06T22:23:57.057Z,7.15
2019-02-06T22:26:49.836Z,7.58
2019-02-06T22:29:42.632Z,6.53
2019-02-06T22:32:35.946Z,6.05
2019-02-06T22:35:30.027Z,5.33
2019-02-06T22:38:23.083Z,10.05
2019-02-06T22:41:16.140Z,6.37
2019-02-06T22:44:12.013Z,6.87
2019-02-06T22:47:06.089Z,6.67
2019-02-06T22:49:58.896Z,11.83
2019-02-06T22:52:51.943Z,11.48
2019-02-06T22:55:45.294Z,8.25
2019-02-06T22:58:38.569Z,6.87
2019-02-06T23:01:51.848Z,9.70
2019-02-06T23:04:44.647Z,4.33
2019-02-06T23:07:37.447Z,7.62
2019-02-06T23:10:31.015Z,7.10
2019-02-06T23:13:23.822Z,4.58
2019-02-06T23:16:17.391Z,6.87
2019-02-06T23:19:10.704Z,8.85
2019-02-06T23:22:03.750Z,5.60
2019-02-06T23:24:52.966Z,7.53
2019-02-06T23:27:46.025Z,10.15
2019-02-06T23:30:35.275Z,7.65
2019-02-06T23:33:28.043Z,9.33
2019-02-06T23:36:21.096Z,6.95
2019-02-06T23:39:10.315Z,6.35
2019-02-06T23:42:03.123Z,10.90
2019-02-06T23:44:55.911Z,7.95
2019-02-06T23:47:48.971Z,7.28
2019-02-06T23:50:38.543Z,8.98
2019-02-06T23:53:31.589Z,5.37
2019-02-06T23:56:20.713Z,4.62
2019-02-06T23:59:13.780Z,5.72
